Time;durP1;ratioP1;P1;durP2;ratioP2;P2;SDS_P1;SDS_P2;PMS_P1;PMS_P2;Temp;Humidity;BMP_temperature;BMP_pressure;BME280_temperature;BME280_humidity;BME280_pressure;Samples;Min_cycle;Max_cycle;Signal;HPM_P1;HPM_P2
2023/03/03 00:01:16;;;;;;;0.00;0.00;;;2.70;86.20;;;;;;4994220;28;20605;-67
2023/03/03 00:03:42;;;;;;;0.10;0.10;;;2.70;86.00;;;;;;4999478;28;20035;-66
2023/03/03 00:06:11;;;;;;;0.00;0.00;;;2.60;85.90;;;;;;4972259;28;20451;-66
2023/03/03 00:08:37;;;;;;;0.00;0.00;;;2.60;85.90;;;;;;4973653;28;20047;-66
2023/03/03 00:11:05;;;;;;;0.00;0.00;;;2.50;85.80;;;;;;4991443;28;20074;-66
2023/03/03 00:13:31;;;;;;;0.10;0.10;;;2.50;85.80;;;;;;4990171;28;20073;-66
2023/03/03 00:16:25;;;;;;;0.00;0.00;;;2.40;85.60;;;;;;4985274;28;20053;-66
2023/03/03 00:18:51;;;;;;;0.00;0.00;;;2.30;85.80;;;;;;4970420;28;20058;-66
2023/03/03 00:21:30;;;;;;;0.00;0.00;;;2.30;85.70;;;;;;4991166;28;20491;-66
2023/03/03 00:24:13;;;;;;;0.10;0.10;;;2.30;85.80;;;;;;4986583;28;20571;-66
2023/03/03 00:26:41;;;;;;;0.00;0.00;;;2.30;85.90;;;;;;4988913;28;20053;-66
2023/03/03 00:29:36;;;;;;;0.00;0.00;;;2.30;86.00;;;;;;4985914;28;20100;-66
2023/03/03 00:32:13;;;;;;;0.00;0.00;;;2.30;86.00;;;;;;4971267;28;20098;-66
2023/03/03 00:34:40;;;;;;;0.00;0.00;;;2.20;86.00;;;;;;4971538;28;20161;-66
2023/03/03 00:37:19;;;;;;;0.10;0.10;;;2.20;86.00;;;;;;4975970;28;20039;-66
2023/03/03 00:39:44;;;;;;;0.10;0.10;;;2.20;85.90;;;;;;4986497;28;20125;-66
2023/03/03 00:42:13;;;;;;;0.00;0.00;;;2.20;85.90;;;;;;4992738;28;20173;-66
2023/03/03 00:44:44;;;;;;;0.00;0.00;;;2.10;86.00;;;;;;4997174;28;20499;-66
2023/03/03 00:47:35;;;;;;;0.00;0.00;;;2.10;86.00;;;;;;4981990;28;20407;-66
2023/03/03 00:50:06;;;;;;;0.00;0.00;;;2.10;86.00;;;;;;4982759;28;20554;-66
2023/03/03 00:52:38;;;;;;;0.10;0.10;;;2.00;86.00;;;;;;4991375;28;20042;-66
2023/03/03 00:55:04;;;;;;;0.00;0.00;;;2.00;86.00;;;;;;4980173;28;20157;-66
2023/03/03 00:57:30;;;;;;;0.00;0.00;;;1.90;86.00;;;;;;4971074;28;20073;-66
2023/03/03 00:59:55;;;;;;;0.00;0.00;;;1.90;86.00;;;;;;4975222;28;20042;-66
2023/03/03 01:02:21;;;;;;;0.00;0.00;;;1.90;86.10;;;;;;4978704;28;20083;-66
2023/03/03 01:04:52;;;;;;;0.00;0.00;;;1.90;86.10;;;;;;4989825;28;20046;-66
2023/03/03 01:07:18;;;;;;;0.10;0.10;;;1.80;86.00;;;;;;4995702;28;20081;-66
2023/03/03 01:09:44;;;;;;;0.00;0.00;;;1.80;86.20;;;;;;5006403;28;20077;-65
2023/03/03 01:12:10;;;;;;;0.00;0.00;;;1.80;86.20;;;;;;4974749;28;20496;-66
2023/03/03 01:14:37;;;;;;;0.00;0.00;;;1.70;86.30;;;;;;4982209;28;20100;-66
2023/03/03 01:17:03;;;;;;;0.00;0.00;;;1.80;86.40;;;;;;4988053;28;20065;-66
2023/03/03 01:19:28;;;;;;;1.27;0.85;;;1.80;86.40;;;;;;4998674;28;20050;-66
2023/03/03 01:21:54;;;;;;;0.00;0.00;;;1.80;86.50;;;;;;4985094;28;20105;-66
2023/03/03 01:24:20;;;;;;;0.00;0.00;;;1.80;86.50;;;;;;4979232;28;20037;-66
2023/03/03 01:26:46;;;;;;;0.00;0.00;;;1.80;86.50;;;;;;4989458;28;20132;-66
2023/03/03 01:29:11;;;;;;;0.00;0.00;;;1.80;86.50;;;;;;4980793;28;20560;-66
2023/03/03 01:31:37;;;;;;;0.00;0.00;;;1.80;86.50;;;;;;4977216;28;20065;-66
2023/03/03 01:34:03;;;;;;;0.00;0.00;;;1.80;86.50;;;;;;4987856;28;20046;-66
2023/03/03 01:36:29;;;;;;;0.10;0.10;;;1.80;86.50;;;;;;4989587;28;20046;-66
2023/03/03 01:38:55;;;;;;;0.00;0.00;;;1.90;86.60;;;;;;4971653;28;20058;-66
2023/03/03 01:41:20;;;;;;;0.00;0.00;;;1.90;86.50;;;;;;4989413;28;20038;-66
2023/03/03 01:43:48;;;;;;;0.00;0.00;;;1.90;86.50;;;;;;4988835;28;20396;-66
2023/03/03 01:46:36;;;;;;;0.00;0.00;;;1.80;86.50;;;;;;4989792;28;20522;-66
2023/03/03 01:49:29;;;;;;;0.00;0.00;;;1.80;86.50;;;;;;4981824;28;20061;-66
2023/03/03 01:51:59;;;;;;;0.00;0.00;;;1.80;86.50;;;;;;4948542;28;20093;-66
2023/03/03 01:54:46;;;;;;;0.00;0.00;;;1.90;86.60;;;;;;4979102;28;20066;-66
2023/03/03 01:57:16;;;;;;;0.00;0.00;;;1.90;86.60;;;;;;4970104;28;20082;-66
2023/03/03 01:59:47;;;;;;;0.00;0.00;;;1.90;86.70;;;;;;4977032;28;20042;-66
2023/03/03 02:02:13;;;;;;;0.00;0.00;;;1.90;86.70;;;;;;4989566;28;20137;-66
2023/03/03 02:04:38;;;;;;;0.00;0.00;;;1.90;86.60;;;;;;4981259;28;20133;-66
2023/03/03 02:07:09;;;;;;;0.00;0.00;;;1.90;86.50;;;;;;4976092;28;20039;-66
2023/03/03 02:09:35;;;;;;;0.00;0.00;;;1.80;86.20;;;;;;4993248;28;20054;-66
2023/03/03 02:12:05;;;;;;;0.00;0.00;;;1.70;86.20;;;;;;4984250;28;20373;-66
2023/03/03 02:14:31;;;;;;;0.05;0.05;;;1.70;86.10;;;;;;4986662;28;20038;-66
2023/03/03 02:16:57;;;;;;;0.00;0.00;;;1.60;86.00;;;;;;4981230;28;20839;-66
2023/03/03 02:19:49;;;;;;;0.00;0.00;;;1.70;86.00;;;;;;4974989;28;20568;-67
2023/03/03 02:22:19;;;;;;;0.00;0.00;;;1.70;86.00;;;;;;4979561;28;20423;-66
2023/03/03 02:24:58;;;;;;;0.00;0.00;;;1.70;85.90;;;;;;4988690;28;20047;-66
2023/03/03 02:27:26;;;;;;;0.00;0.00;;;1.60;85.80;;;;;;4993122;28;20125;-67
2023/03/03 02:29:51;;;;;;;0.00;0.00;;;1.70;85.80;;;;;;4973902;28;20501;-67
2023/03/03 02:32:17;;;;;;;0.08;0.08;;;1.70;85.80;;;;;;4972304;28;20062;-66
2023/03/03 02:34:48;;;;;;;0.00;0.00;;;1.70;85.90;;;;;;4985320;28;20070;-66
2023/03/03 02:37:14;;;;;;;0.00;0.00;;;1.70;85.90;;;;;;4992759;28;20050;-66
2023/03/03 02:39:39;;;;;;;0.00;0.00;;;1.70;86.00;;;;;;4991783;28;20628;-66
2023/03/03 02:42:28;;;;;;;0.10;0.10;;;1.80;86.00;;;;;;4975214;28;20389;-66
2023/03/03 02:44:54;;;;;;;0.00;0.00;;;1.90;86.10;;;;;;4988599;28;20043;-66
2023/03/03 02:47:19;;;;;;;0.00;0.00;;;1.90;86.10;;;;;;4991670;28;20042;-66
2023/03/03 02:49:45;;;;;;;0.00;0.00;;;1.90;86.20;;;;;;4990602;28;20046;-66
2023/03/03 02:52:13;;;;;;;0.00;0.00;;;1.90;86.20;;;;;;4979684;28;20051;-66
2023/03/03 02:54:39;;;;;;;0.05;0.05;;;1.90;86.10;;;;;;5001772;28;20515;-67
2023/03/03 02:57:06;;;;;;;0.05;0.05;;;1.90;86.10;;;;;;4992458;28;20128;-66
2023/03/03 02:59:31;;;;;;;0.00;0.00;;;1.90;86.00;;;;;;4987788;28;20138;-66
2023/03/03 03:01:57;;;;;;;0.00;0.00;;;1.90;85.90;;;;;;4992003;28;20521;-66
2023/03/03 03:04:27;;;;;;;0.57;0.57;;;1.90;85.90;;;;;;4979856;28;20053;-66
2023/03/03 03:06:54;;;;;;;0.00;0.00;;;1.90;85.80;;;;;;4973098;28;20046;-65
2023/03/03 03:09:22;;;;;;;0.10;0.10;;;1.90;85.80;;;;;;4985087;28;20046;-66
2023/03/03 03:11:47;;;;;;;0.00;0.00;;;1.90;85.80;;;;;;4992252;28;20057;-67
2023/03/03 03:14:13;;;;;;;0.00;0.00;;;1.90;85.80;;;;;;4982504;28;20758;-66
2023/03/03 03:16:40;;;;;;;0.00;0.00;;;1.90;85.80;;;;;;4974402;28;20189;-66
2023/03/03 03:19:06;;;;;;;0.00;0.00;;;1.90;85.70;;;;;;4960779;28;20551;-66
2023/03/03 03:21:33;;;;;;;0.00;0.00;;;2.00;85.80;;;;;;4992361;28;20133;-66
2023/03/03 03:23:59;;;;;;;0.10;0.10;;;2.00;85.90;;;;;;4991688;28;20039;-66
2023/03/03 03:26:25;;;;;;;0.00;0.00;;;2.10;85.90;;;;;;4992114;28;20049;-66
2023/03/03 03:28:51;;;;;;;0.00;0.00;;;2.20;86.00;;;;;;4985437;28;20420;-66
2023/03/03 03:31:17;;;;;;;0.00;0.00;;;2.10;86.00;;;;;;4972591;28;20055;-66
2023/03/03 03:33:43;;;;;;;0.00;0.00;;;2.20;86.20;;;;;;4971463;28;20462;-66
2023/03/03 03:36:10;;;;;;;0.00;0.00;;;2.20;86.20;;;;;;4972397;28;20130;-66
2023/03/03 03:38:36;;;;;;;0.00;0.00;;;2.20;86.30;;;;;;4982142;28;20053;-66
2023/03/03 03:41:03;;;;;;;0.10;0.10;;;2.20;86.40;;;;;;4991793;28;20074;-66
2023/03/03 03:43:28;;;;;;;0.00;0.00;;;2.20;86.40;;;;;;4991804;28;20128;-66
2023/03/03 03:45:54;;;;;;;0.10;0.10;;;2.30;86.50;;;;;;4991845;28;20181;-67
2023/03/03 03:48:20;;;;;;;0.00;0.00;;;2.30;86.40;;;;;;4990908;28;20046;-66
2023/03/03 03:50:49;;;;;;;0.00;0.00;;;2.30;86.30;;;;;;4979544;28;20038;-66
2023/03/03 03:53:16;;;;;;;0.00;0.00;;;2.40;86.30;;;;;;4991423;28;20361;-66
2023/03/03 03:55:42;;;;;;;0.00;0.00;;;2.40;86.20;;;;;;4991549;28;20046;-66
2023/03/03 03:58:09;;;;;;;0.03;0.03;;;2.30;86.00;;;;;;4989922;28;20415;-66
2023/03/03 04:00:35;;;;;;;0.00;0.00;;;2.20;85.90;;;;;;4974950;28;20056;-66
2023/03/03 04:03:00;;;;;;;0.00;0.00;;;2.20;85.70;;;;;;4991688;28;20058;-66
2023/03/03 04:05:26;;;;;;;0.00;0.00;;;2.10;85.70;;;;;;5007833;28;20053;-66
2023/03/03 04:07:52;;;;;;;0.00;0.00;;;2.00;85.50;;;;;;4991423;28;20034;-66
2023/03/03 04:10:17;;;;;;;0.00;0.00;;;2.00;85.40;;;;;;4975603;28;20039;-66
2023/03/03 04:12:43;;;;;;;0.00;0.00;;;1.90;85.40;;;;;;4971837;28;20042;-66
2023/03/03 04:15:11;;;;;;;0.10;0.10;;;1.80;85.30;;;;;;4971447;28;20456;-66
2023/03/03 04:17:37;;;;;;;0.00;0.00;;;1.80;85.20;;;;;;4980167;28;20493;-66
2023/03/03 04:20:03;;;;;;;0.10;0.10;;;1.70;85.10;;;;;;4990310;28;20127;-66
2023/03/03 04:22:32;;;;;;;0.10;0.10;;;1.70;85.20;;;;;;4990614;28;20050;-66
2023/03/03 04:25:05;;;;;;;0.00;0.00;;;1.70;85.30;;;;;;4990961;28;20082;-66
2023/03/03 04:27:32;;;;;;;0.00;0.00;;;1.60;85.30;;;;;;4988674;28;20046;-66
2023/03/03 04:29:58;;;;;;;0.00;0.00;;;1.70;85.30;;;;;;4972992;28;20500;-66
2023/03/03 04:32:23;;;;;;;0.00;0.00;;;1.60;85.30;;;;;;4971451;28;20050;-65
2023/03/03 04:34:49;;;;;;;0.00;0.00;;;1.60;85.40;;;;;;4988891;28;20038;-66
2023/03/03 04:37:15;;;;;;;0.00;0.00;;;1.70;85.40;;;;;;4991024;28;20053;-65
2023/03/03 04:39:40;;;;;;;0.03;0.03;;;1.60;85.40;;;;;;4982572;28;20076;-66
2023/03/03 04:42:06;;;;;;;0.00;0.00;;;1.70;85.50;;;;;;4986889;28;20050;-65
2023/03/03 04:44:32;;;;;;;0.00;0.00;;;1.60;85.40;;;;;;4982384;28;20536;-65
2023/03/03 04:46:57;;;;;;;0.00;0.00;;;1.60;85.40;;;;;;4971135;28;20046;-66
2023/03/03 04:49:23;;;;;;;0.00;0.00;;;1.60;85.30;;;;;;4977641;28;20691;-66
2023/03/03 04:51:49;;;;;;;0.00;0.00;;;1.60;85.40;;;;;;4975643;28;20054;-65
2023/03/03 04:54:14;;;;;;;0.10;0.10;;;1.60;85.40;;;;;;4986217;28;20100;-66
2023/03/03 04:56:40;;;;;;;0.00;0.00;;;1.60;85.40;;;;;;4978778;28;20042;-66
2023/03/03 04:59:05;;;;;;;0.00;0.00;;;1.60;85.40;;;;;;4985216;28;20133;-66
2023/03/03 05:01:31;;;;;;;0.00;0.00;;;1.60;85.30;;;;;;4982134;28;20035;-66
2023/03/03 05:03:57;;;;;;;0.00;0.00;;;1.70;85.40;;;;;;4989877;28;20038;-65
2023/03/03 05:06:23;;;;;;;0.00;0.00;;;1.60;85.40;;;;;;4990115;28;20627;-66
2023/03/03 05:08:49;;;;;;;0.00;0.00;;;1.70;85.40;;;;;;4989783;28;20054;-66
2023/03/03 05:11:14;;;;;;;0.00;0.00;;;1.70;85.40;;;;;;4988702;28;20129;-66
2023/03/03 05:13:40;;;;;;;0.00;0.00;;;1.80;85.50;;;;;;4988237;28;20499;-66
2023/03/03 05:16:06;;;;;;;0.00;0.00;;;1.80;85.60;;;;;;4970830;28;20046;-65
2023/03/03 05:18:31;;;;;;;0.05;0.05;;;1.80;85.80;;;;;;4972634;28;20051;-66
2023/03/03 05:20:57;;;;;;;0.00;0.00;;;1.90;85.90;;;;;;4972906;28;20046;-66
2023/03/03 05:23:23;;;;;;;0.00;0.00;;;2.00;86.00;;;;;;4990098;28;20090;-66
2023/03/03 05:25:49;;;;;;;0.00;0.00;;;1.90;86.20;;;;;;4989684;28;20050;-66
2023/03/03 05:28:16;;;;;;;0.10;0.10;;;2.00;86.30;;;;;;4989069;28;20161;-66
2023/03/03 05:30:41;;;;;;;0.00;0.00;;;2.00;86.40;;;;;;4985669;28;20084;-67
2023/03/03 05:33:11;;;;;;;0.00;0.00;;;2.00;86.40;;;;;;4971136;28;20074;-66
2023/03/03 05:35:37;;;;;;;0.00;0.00;;;2.10;86.40;;;;;;4970213;28;20141;-66
2023/03/03 05:38:02;;;;;;;0.10;0.10;;;2.10;86.50;;;;;;4970350;28;20074;-66
2023/03/03 05:40:28;;;;;;;0.03;0.03;;;2.10;86.60;;;;;;4984908;28;20046;-66
2023/03/03 05:42:54;;;;;;;0.00;0.00;;;2.20;86.70;;;;;;4970231;28;20526;-66
2023/03/03 05:45:20;;;;;;;0.00;0.00;;;2.10;86.70;;;;;;4970583;28;20078;-66
2023/03/03 05:47:47;;;;;;;0.05;0.05;;;2.10;86.80;;;;;;4985746;28;20092;-66
2023/03/03 05:50:13;;;;;;;0.00;0.00;;;2.20;86.80;;;;;;4982552;28;20166;-65
2023/03/03 05:52:39;;;;;;;0.00;0.00;;;2.20;86.80;;;;;;4999721;28;20038;-66
2023/03/03 05:55:05;;;;;;;0.00;0.00;;;2.20;86.80;;;;;;4995158;28;20058;-66
2023/03/03 05:57:30;;;;;;;0.10;0.10;;;2.10;86.70;;;;;;4989329;28;20046;-66
2023/03/03 05:59:56;;;;;;;0.08;0.08;;;2.20;86.80;;;;;;4988487;28;20050;-66
2023/03/03 06:02:22;;;;;;;0.00;0.00;;;2.10;86.80;;;;;;4988427;28;20517;-66
2023/03/03 06:04:47;;;;;;;0.05;0.05;;;2.10;86.80;;;;;;4989450;28;20411;-66
2023/03/03 06:07:13;;;;;;;0.10;0.10;;;2.10;86.70;;;;;;4989656;28;20042;-66
2023/03/03 06:09:39;;;;;;;0.00;0.00;;;2.10;86.70;;;;;;4978687;28;20531;-67
2023/03/03 06:12:05;;;;;;;0.10;0.10;;;2.10;86.70;;;;;;4982562;28;20053;-66
2023/03/03 06:14:30;;;;;;;0.10;0.10;;;2.00;86.70;;;;;;5002340;28;20561;-66
2023/03/03 06:16:56;;;;;;;0.05;0.05;;;2.00;86.80;;;;;;4988795;28;20082;-66
2023/03/03 06:19:22;;;;;;;0.00;0.00;;;2.00;86.80;;;;;;4980012;28;20198;-66
2023/03/03 06:21:48;;;;;;;0.00;0.00;;;2.00;86.90;;;;;;4973722;28;20054;-67
2023/03/03 06:24:14;;;;;;;0.00;0.00;;;2.00;87.00;;;;;;4986353;28;20050;-66
2023/03/03 06:26:40;;;;;;;0.00;0.00;;;2.00;86.90;;;;;;4974117;28;20147;-67
2023/03/03 06:29:06;;;;;;;0.08;0.08;;;1.90;86.90;;;;;;4970499;28;20400;-66
2023/03/03 06:31:31;;;;;;;0.00;0.00;;;2.00;87.00;;;;;;4972799;28;20531;-66
2023/03/03 06:33:57;;;;;;;0.00;0.00;;;1.90;87.00;;;;;;4975084;28;20443;-67
2023/03/03 06:36:24;;;;;;;0.00;0.00;;;2.00;87.10;;;;;;4972962;28;21298;-66
2023/03/03 06:38:50;;;;;;;0.08;0.08;;;2.10;87.10;;;;;;4969548;28;20507;-66
2023/03/03 06:41:15;;;;;;;0.00;0.00;;;2.10;87.10;;;;;;4980195;28;20054;-66
2023/03/03 06:43:41;;;;;;;0.00;0.00;;;2.10;87.00;;;;;;4987417;28;20045;-66
2023/03/03 06:46:07;;;;;;;0.00;0.00;;;2.10;86.90;;;;;;4985620;28;20037;-66
2023/03/03 06:48:33;;;;;;;0.00;0.00;;;2.10;86.90;;;;;;4983474;28;20050;-66
2023/03/03 06:51:00;;;;;;;0.00;0.00;;;2.10;86.90;;;;;;4975645;28;20514;-67
2023/03/03 06:53:26;;;;;;;0.00;0.00;;;2.20;87.00;;;;;;4974920;28;20061;-66
2023/03/03 06:55:54;;;;;;;0.00;0.00;;;2.20;87.00;;;;;;4973712;28;20043;-67
2023/03/03 06:58:21;;;;;;;0.00;0.00;;;2.20;87.00;;;;;;4974438;28;20039;-66
2023/03/03 07:01:00;;;;;;;0.00;0.00;;;2.20;87.00;;;;;;4975531;28;20050;-66
2023/03/03 07:03:33;;;;;;;0.10;0.10;;;2.20;87.00;;;;;;4986042;28;20085;-66
2023/03/03 07:05:59;;;;;;;0.00;0.00;;;2.30;87.00;;;;;;4980112;28;20058;-66
2023/03/03 07:08:29;;;;;;;0.00;0.00;;;2.30;87.10;;;;;;4984243;28;20058;-66
2023/03/03 07:10:54;;;;;;;0.10;0.10;;;2.20;87.10;;;;;;4997643;28;20047;-67
2023/03/03 07:13:26;;;;;;;0.10;0.10;;;2.30;87.30;;;;;;4985171;28;20058;-66
2023/03/03 07:15:53;;;;;;;0.00;0.00;;;2.40;87.40;;;;;;4971160;28;20500;-66
2023/03/03 07:18:44;;;;;;;0.10;0.10;;;2.40;87.30;;;;;;4980472;28;20043;-66
2023/03/03 07:21:17;;;;;;;0.00;0.00;;;2.40;87.30;;;;;;4974447;28;20134;-66
2023/03/03 07:23:45;;;;;;;0.00;0.00;;;2.50;87.40;;;;;;4982957;28;20046;-66
2023/03/03 07:26:16;;;;;;;0.10;0.10;;;2.50;87.40;;;;;;4982552;28;20086;-64
2023/03/03 07:28:52;;;;;;;0.00;0.00;;;2.50;87.50;;;;;;4994393;28;20077;-66
2023/03/03 07:31:30;;;;;;;0.00;0.00;;;2.60;87.60;;;;;;4977958;28;20093;-67
2023/03/03 07:33:58;;;;;;;0.00;0.00;;;2.70;87.60;;;;;;4988723;28;20499;-67
2023/03/03 07:36:36;;;;;;;0.00;0.00;;;2.80;87.70;;;;;;4992844;28;20058;-65
2023/03/03 07:39:37;;;;;;;0.00;0.00;;;2.90;87.70;;;;;;4994609;28;20047;-66
2023/03/03 07:42:38;;;;;;;0.00;0.00;;;3.00;87.70;;;;;;4995622;28;20515;-67
2023/03/03 07:45:25;;;;;;;0.00;0.00;;;3.10;87.70;;;;;;4993918;28;20057;-66
2023/03/03 07:47:51;;;;;;;0.00;0.00;;;3.10;87.70;;;;;;4989223;28;21578;-66
2023/03/03 07:50:20;;;;;;;0.00;0.00;;;3.30;87.70;;;;;;4990528;28;20849;-66
2023/03/03 07:52:58;;;;;;;0.00;0.00;;;3.40;87.80;;;;;;4993689;28;20054;-66
2023/03/03 07:55:30;;;;;;;0.10;0.10;;;3.40;87.90;;;;;;4993314;28;20077;-67
2023/03/03 07:58:04;;;;;;;0.10;0.10;;;3.40;87.80;;;;;;4995969;28;20128;-66
2023/03/03 08:00:29;;;;;;;0.10;0.10;;;3.50;88.00;;;;;;4995334;28;20570;-66
2023/03/03 08:03:03;;;;;;;0.00;0.00;;;3.60;88.00;;;;;;4995497;28;20058;-67
2023/03/03 08:05:42;;;;;;;0.00;0.00;;;3.60;88.00;;;;;;4997950;28;20058;-66
2023/03/03 08:08:28;;;;;;;0.00;0.00;;;3.70;87.80;;;;;;4995652;28;20839;-62
2023/03/03 08:10:56;;;;;;;0.00;0.00;;;3.70;87.90;;;;;;4989010;28;20669;-63
2023/03/03 08:13:28;;;;;;;0.00;0.00;;;3.70;87.90;;;;;;4992159;28;20113;-63
2023/03/03 08:15:59;;;;;;;0.00;0.00;;;3.80;88.00;;;;;;4990968;28;20700;-63
2023/03/03 08:18:35;;;;;;;0.00;0.00;;;3.90;87.90;;;;;;4996254;28;20577;-63
2023/03/03 08:21:22;;;;;;;0.00;0.00;;;3.90;88.10;;;;;;4992456;28;20098;-63
2023/03/03 08:23:50;;;;;;;0.00;0.00;;;4.00;88.10;;;;;;4991004;28;20033;-64
2023/03/03 08:26:20;;;;;;;0.00;0.00;;;4.10;88.10;;;;;;4994473;28;20416;-63
2023/03/03 08:28:46;;;;;;;0.00;0.00;;;4.10;88.00;;;;;;4991796;28;20045;-62
2023/03/03 08:31:12;;;;;;;0.00;0.00;;;4.20;88.00;;;;;;4992726;28;20743;-63
2023/03/03 08:33:39;;;;;;;0.00;0.00;;;4.20;88.00;;;;;;4993663;28;20057;-63
2023/03/03 08:36:06;;;;;;;0.00;0.00;;;4.30;87.90;;;;;;4992643;28;20380;-63
2023/03/03 08:38:32;;;;;;;0.10;0.10;;;4.40;87.90;;;;;;4993821;28;20492;-62
2023/03/03 08:40:58;;;;;;;0.10;0.10;;;4.40;87.70;;;;;;4999327;28;20038;-63
2023/03/03 08:43:24;;;;;;;0.20;0.20;;;4.50;87.70;;;;;;4995646;28;20487;-63
2023/03/03 08:45:51;;;;;;;0.00;0.00;;;4.50;87.80;;;;;;4992212;28;20061;-63
2023/03/03 08:48:32;;;;;;;0.68;0.68;;;4.60;87.80;;;;;;4992298;28;20100;-63
2023/03/03 08:50:58;;;;;;;0.00;0.00;;;4.70;87.80;;;;;;4991899;28;20065;-63
2023/03/03 08:53:25;;;;;;;0.00;0.00;;;4.80;87.70;;;;;;5005715;28;20046;-63
2023/03/03 08:55:50;;;;;;;0.00;0.00;;;4.90;87.70;;;;;;4995688;28;20410;-63
2023/03/03 08:58:18;;;;;;;0.28;0.28;;;5.10;87.50;;;;;;5009368;28;20041;-63
2023/03/03 09:00:44;;;;;;;0.00;0.00;;;5.20;87.40;;;;;;4994721;28;20125;-63
2023/03/03 09:03:10;;;;;;;0.00;0.00;;;5.30;87.30;;;;;;4991042;28;20037;-63
2023/03/03 09:05:37;;;;;;;0.20;0.20;;;5.40;87.20;;;;;;4990872;28;20046;-64
2023/03/03 09:08:04;;;;;;;0.00;0.00;;;5.50;87.00;;;;;;4993253;28;20415;-63
2023/03/03 09:10:31;;;;;;;0.20;0.20;;;5.60;86.90;;;;;;4993845;28;20053;-63
2023/03/03 09:13:05;;;;;;;0.00;0.00;;;5.60;86.50;;;;;;4991209;28;20050;-63
2023/03/03 09:15:34;;;;;;;0.10;0.10;;;5.70;85.80;;;;;;4990574;28;20050;-63
2023/03/03 09:18:17;;;;;;;0.00;0.00;;;5.80;84.70;;;;;;4994371;28;20423;-64
2023/03/03 09:20:48;;;;;;;0.00;0.00;;;6.00;84.40;;;;;;4995489;28;20138;-64
2023/03/03 09:23:29;;;;;;;0.00;0.00;;;6.00;82.60;;;;;;4989546;28;20042;-63
2023/03/03 09:25:56;;;;;;;0.00;0.00;;;6.10;81.90;;;;;;4996630;28;20046;-63
2023/03/03 09:28:27;;;;;;;0.00;0.00;;;6.20;81.30;;;;;;4990954;28;20108;-65
2023/03/03 09:30:56;;;;;;;0.00;0.00;;;6.30;81.40;;;;;;4993192;28;20056;-64
2023/03/03 09:33:23;;;;;;;0.20;0.20;;;6.40;80.20;;;;;;4994304;28;20678;-63
2023/03/03 09:36:23;;;;;;;0.00;0.00;;;6.50;80.50;;;;;;4990149;28;20065;-64
2023/03/03 09:38:50;;;;;;;0.00;0.00;;;6.60;78.40;;;;;;4991410;28;20142;-66
2023/03/03 09:41:45;;;;;;;0.00;0.00;;;6.70;78.50;;;;;;4991823;28;20049;-64
2023/03/03 09:44:29;;;;;;;0.00;0.00;;;6.70;77.30;;;;;;4927344;28;20501;-63
2023/03/03 09:47:33;;;;;;;0.00;0.00;;;6.70;76.80;;;;;;4992359;28;20046;-63
2023/03/03 09:50:11;;;;;;;0.00;0.00;;;6.70;76.80;;;;;;4991403;28;20046;-64
2023/03/03 09:52:44;;;;;;;0.00;0.00;;;6.70;74.90;;;;;;4991993;28;20525;-64
2023/03/03 09:55:18;;;;;;;0.00;0.00;;;6.70;74.20;;;;;;4992731;28;20107;-63
2023/03/03 09:58:05;;;;;;;0.00;0.00;;;6.70;74.60;;;;;;4985444;28;20427;-63
2023/03/03 10:00:57;;;;;;;0.00;0.00;;;6.70;74.70;;;;;;4994396;28;20050;-63
2023/03/03 10:04:00;;;;;;;0.00;0.00;;;6.70;73.40;;;;;;4993695;28;20423;-64
2023/03/03 10:06:52;;;;;;;0.00;0.00;;;6.60;74.20;;;;;;4991566;28;20090;-63
2023/03/03 10:09:55;;;;;;;0.10;0.10;;;6.70;73.70;;;;;;5009326;28;20088;-63
2023/03/03 10:12:39;;;;;;;0.00;0.00;;;6.70;73.40;;;;;;4994560;28;21359;-67
2023/03/03 10:15:16;;;;;;;0.00;0.00;;;6.80;71.60;;;;;;4993303;28;20053;-64
2023/03/03 10:17:52;;;;;;;0.00;0.00;;;6.80;71.50;;;;;;4993167;28;20058;-64
2023/03/03 10:20:25;;;;;;;0.10;0.10;;;6.90;72.00;;;;;;4991845;28;20042;-64
2023/03/03 10:23:22;;;;;;;0.00;0.00;;;6.90;73.30;;;;;;4993436;28;20046;-64
2023/03/03 10:26:21;;;;;;;0.00;0.00;;;7.00;72.70;;;;;;4997532;28;20125;-64
2023/03/03 10:29:08;;;;;;;0.00;0.00;;;6.90;69.60;;;;;;4993610;28;20068;-64
2023/03/03 10:32:01;;;;;;;0.00;0.00;;;7.00;71.00;;;;;;4998019;28;20697;-64
2023/03/03 10:34:48;;;;;;;0.00;0.00;;;6.90;70.00;;;;;;4998978;28;20038;-62
2023/03/03 10:37:26;;;;;;;0.00;0.00;;;7.40;74.80;;;;;;4996596;28;20065;-64
2023/03/03 10:40:09;;;;;;;0.00;0.00;;;7.50;69.90;;;;;;4998378;28;20054;-67
2023/03/03 10:42:58;;;;;;;0.00;0.00;;;7.50;70.70;;;;;;4993769;28;20042;-64
2023/03/03 10:45:45;;;;;;;0.00;0.00;;;7.40;70.40;;;;;;5000045;28;20539;-64
2023/03/03 10:48:25;;;;;;;0.00;0.00;;;7.40;70.70;;;;;;4997042;28;20395;-65
2023/03/03 10:51:20;;;;;;;0.00;0.00;;;7.40;71.80;;;;;;4995268;28;20049;-64
2023/03/03 10:54:14;;;;;;;0.00;0.00;;;7.40;71.70;;;;;;4997390;28;20046;-64
2023/03/03 10:56:54;;;;;;;0.00;0.00;;;7.30;71.50;;;;;;4996758;28;20046;-64
2023/03/03 11:00:04;;;;;;;0.00;0.00;;;7.20;70.60;;;;;;4997192;28;20038;-64
2023/03/03 11:03:17;;;;;;;0.00;0.00;;;7.20;71.00;;;;;;4969538;28;20050;-64
2023/03/03 11:05:49;;;;;;;0.00;0.00;;;7.20;71.60;;;;;;4995908;28;20525;-64
2023/03/03 11:08:17;;;;;;;0.30;0.30;;;7.20;71.80;;;;;;4994022;28;20082;-64
2023/03/03 11:11:06;;;;;;;0.00;0.00;;;7.20;70.90;;;;;;4996929;28;20042;-64
2023/03/03 11:13:56;;;;;;;0.00;0.00;;;7.30;71.50;;;;;;4997934;28;20038;-64
2023/03/03 11:16:54;;;;;;;0.00;0.00;;;7.20;70.00;;;;;;4995583;28;20503;-64
2023/03/03 11:19:23;;;;;;;0.00;0.00;;;7.10;69.50;;;;;;4994238;28;20419;-64
2023/03/03 11:22:25;;;;;;;0.10;0.10;;;7.10;69.10;;;;;;4995844;28;20058;-64
2023/03/03 11:24:59;;;;;;;0.00;0.00;;;7.20;69.60;;;;;;4976492;28;20052;-63
2023/03/03 11:28:02;;;;;;;0.00;0.00;;;7.30;69.80;;;;;;4989320;28;20732;-63
2023/03/03 11:30:46;;;;;;;0.10;0.10;;;7.50;69.70;;;;;;4996384;28;20054;-63
2023/03/03 11:33:39;;;;;;;0.00;0.00;;;7.40;69.40;;;;;;4997090;28;20062;-63
2023/03/03 11:36:10;;;;;;;0.00;0.00;;;7.40;68.80;;;;;;4983294;28;20831;-63
2023/03/03 11:38:42;;;;;;;0.00;0.00;;;7.40;70.00;;;;;;4993523;28;20170;-62
2023/03/03 11:41:18;;;;;;;0.03;0.03;;;7.50;69.70;;;;;;4997073;28;21248;-63
2023/03/03 11:43:50;;;;;;;0.00;0.00;;;7.40;68.50;;;;;;4992230;28;20084;-63
2023/03/03 11:46:21;;;;;;;0.00;0.00;;;7.50;69.20;;;;;;4994292;28;20042;-63
2023/03/03 11:49:01;;;;;;;0.00;0.00;;;7.60;70.20;;;;;;4993819;28;20058;-67
2023/03/03 11:51:39;;;;;;;0.00;0.00;;;7.60;70.40;;;;;;4996000;28;20050;-63
2023/03/03 11:54:16;;;;;;;0.00;0.00;;;7.60;70.20;;;;;;4976743;28;20077;-64
2023/03/03 11:56:47;;;;;;;0.50;0.50;;;7.60;69.50;;;;;;4994096;28;20080;-64
2023/03/03 11:59:41;;;;;;;1.17;1.10;;;7.60;68.20;;;;;;4994126;28;20081;-63
2023/03/03 12:02:33;;;;;;;0.00;0.00;;;7.60;69.70;;;;;;4995992;28;20185;-63
2023/03/03 12:05:07;;;;;;;0.00;0.00;;;7.70;68.70;;;;;;4992449;28;20045;-63
2023/03/03 12:07:41;;;;;;;0.00;0.00;;;7.70;69.40;;;;;;4991874;28;20061;-63
2023/03/03 12:10:20;;;;;;;0.00;0.00;;;7.80;70.30;;;;;;4993513;28;20046;-62
2023/03/03 12:13:10;;;;;;;0.00;0.00;;;7.80;69.70;;;;;;4991348;28;20161;-63
2023/03/03 12:15:48;;;;;;;0.00;0.00;;;7.70;68.90;;;;;;4995914;28;20045;-64
2023/03/03 12:18:22;;;;;;;0.00;0.00;;;7.60;67.60;;;;;;4989372;28;20884;-63
2023/03/03 12:21:01;;;;;;;0.05;0.05;;;7.60;68.20;;;;;;4996435;28;20545;-63
2023/03/03 12:23:38;;;;;;;0.00;0.00;;;7.90;68.50;;;;;;4994052;28;20703;-63
2023/03/03 12:26:25;;;;;;;0.00;0.00;;;7.90;68.60;;;;;;4981097;28;20041;-63
2023/03/03 12:28:57;;;;;;;0.30;0.30;;;8.10;69.00;;;;;;4995827;28;20111;-63
2023/03/03 12:31:33;;;;;;;0.00;0.00;;;8.10;69.40;;;;;;4978428;28;20050;-63
2023/03/03 12:34:11;;;;;;;0.00;0.00;;;8.10;69.50;;;;;;4995101;28;20054;-63
2023/03/03 12:37:04;;;;;;;0.00;0.00;;;8.10;69.20;;;;;;4992362;28;20871;-63
2023/03/03 12:39:29;;;;;;;0.30;0.30;;;8.20;70.00;;;;;;4994009;28;20049;-63
2023/03/03 12:42:18;;;;;;;0.00;0.00;;;8.10;69.80;;;;;;4993793;28;20082;-63
2023/03/03 12:45:14;;;;;;;0.10;0.10;;;8.10;69.50;;;;;;4994835;28;20430;-63
2023/03/03 12:47:49;;;;;;;0.00;0.00;;;8.00;69.70;;;;;;4996396;28;20073;-63
2023/03/03 12:50:37;;;;;;;0.10;0.10;;;7.90;70.70;;;;;;4993301;28;20042;-63
2023/03/03 12:53:06;;;;;;;0.00;0.00;;;7.90;71.20;;;;;;4991826;28;20084;-63
2023/03/03 12:55:37;;;;;;;0.00;0.00;;;7.70;70.70;;;;;;4994956;28;20066;-63
2023/03/03 12:58:27;;;;;;;0.00;0.00;;;7.80;69.80;;;;;;4995053;28;20511;-63
2023/03/03 13:01:18;;;;;;;1.85;1.45;;;7.60;68.70;;;;;;4997731;28;20446;-63
2023/03/03 13:04:04;;;;;;;0.00;0.00;;;7.50;69.10;;;;;;4996611;28;20050;-63
2023/03/03 13:06:41;;;;;;;0.00;0.00;;;7.60;69.20;;;;;;4996141;28;20343;-62
2023/03/03 13:09:07;;;;;;;0.00;0.00;;;7.80;69.20;;;;;;4993205;28;20038;-63
2023/03/03 13:11:35;;;;;;;0.10;0.10;;;7.80;68.10;;;;;;4989979;28;20439;-64
2023/03/03 13:14:25;;;;;;;0.00;0.00;;;7.90;68.00;;;;;;4998415;28;20049;-62
2023/03/03 13:17:02;;;;;;;0.00;0.00;;;7.90;68.80;;;;;;4991345;28;20050;-63
2023/03/03 13:19:51;;;;;;;0.00;0.00;;;7.90;68.70;;;;;;4991893;28;20114;-63
2023/03/03 13:22:38;;;;;;;0.00;0.00;;;7.90;69.30;;;;;;4997898;28;20116;-63
2023/03/03 13:25:19;;;;;;;0.38;0.38;;;8.00;69.70;;;;;;4993030;28;20047;-62
2023/03/03 13:27:48;;;;;;;0.00;0.00;;;7.90;69.50;;;;;;4994432;28;20074;-63